createdAt,value
2023-04-11T00:00:13.179Z,2.98
2023-04-11T00:02:40.600Z,3.00
2023-04-11T00:05:09.320Z,3.19
2023-04-11T00:07:36.523Z,2.92
2023-04-11T00:10:06.279Z,3.12
2023-04-11T00:12:33.299Z,2.84
2023-04-11T00:15:00.385Z,3.03
2023-04-11T00:17:27.663Z,2.90
2023-04-11T00:19:54.755Z,2.83
2023-04-11T00:22:21.779Z,2.92
2023-04-11T00:24:48.921Z,2.82
2023-04-11T00:27:17.616Z,2.88
2023-04-11T00:29:45.302Z,2.85
2023-04-11T00:32:12.499Z,2.55
2023-04-11T00:34:39.657Z,2.76
2023-04-11T00:37:06.820Z,2.67
2023-04-11T00:39:34.121Z,2.73
2023-04-11T00:42:05.196Z,2.69
2023-04-11T00:44:34.423Z,2.88
2023-04-11T00:47:03.333Z,2.89
2023-04-11T00:49:31.118Z,2.71
2023-04-11T00:51:59.379Z,2.61
2023-04-11T00:54:27.624Z,2.79
2023-04-11T00:56:57.806Z,2.79
2023-04-11T00:59:25.954Z,2.76
2023-04-11T01:01:54.637Z,2.75
2023-04-11T01:04:22.511Z,2.70
2023-04-11T01:06:54.310Z,2.94
2023-04-11T01:09:24.477Z,2.70
2023-04-11T01:11:52.263Z,2.76
2023-04-11T01:14:21.549Z,2.86
2023-04-11T01:16:48.889Z,2.67
2023-04-11T01:19:20.127Z,2.70
2023-04-11T01:21:49.884Z,2.69
2023-04-11T01:24:18.793Z,2.46
2023-04-11T01:26:46.178Z,2.56
2023-04-11T01:29:13.323Z,2.63
2023-04-11T01:31:40.510Z,2.54
2023-04-11T01:34:08.246Z,3.07
2023-04-11T01:36:35.587Z,2.65
2023-04-11T01:39:02.803Z,2.99
2023-04-11T01:41:32.939Z,2.62
2023-04-11T01:44:00.376Z,2.43
2023-04-11T01:46:27.857Z,2.81
2023-04-11T01:48:56.557Z,2.91
2023-04-11T01:51:24.077Z,2.70
2023-04-11T01:53:51.279Z,2.66
2023-04-11T01:56:18.475Z,2.54
2023-04-11T01:58:47.586Z,2.61
2023-04-11T02:01:17.972Z,2.76
2023-04-11T02:03:45.540Z,2.62
2023-04-11T02:06:12.935Z,2.48
2023-04-11T02:08:40.117Z,2.86
2023-04-11T02:11:07.338Z,2.63
2023-04-11T02:13:35.001Z,2.82
2023-04-11T02:16:09.788Z,2.69
2023-04-11T02:18:37.986Z,2.68
2023-04-11T02:21:06.229Z,2.77
2023-04-11T02:23:33.397Z,2.92
2023-04-11T02:26:00.676Z,2.67
2023-04-11T02:28:27.818Z,2.86
2023-04-11T02:30:55.074Z,2.76
2023-04-11T02:33:23.659Z,2.75
2023-04-11T02:35:50.795Z,2.93
2023-04-11T02:38:17.932Z,2.75
2023-04-11T02:40:45.122Z,2.74
2023-04-11T02:43:12.357Z,2.94
2023-04-11T02:45:39.580Z,2.66
2023-04-11T02:48:06.783Z,2.47
2023-04-11T02:50:35.377Z,2.20
2023-04-11T02:53:02.497Z,2.36
2023-04-11T02:55:29.643Z,2.56
2023-04-11T02:57:56.815Z,2.53
2023-04-11T03:00:23.958Z,2.67
2023-04-11T03:02:51.097Z,2.68
2023-04-11T03:05:18.234Z,2.73
2023-04-11T03:07:46.799Z,2.78
2023-04-11T03:10:13.980Z,2.81
2023-04-11T03:12:41.176Z,2.93
2023-04-11T03:15:09.317Z,2.84
2023-04-11T03:17:36.526Z,3.02
2023-04-11T03:20:03.938Z,2.91
2023-04-11T03:22:31.061Z,2.88
2023-04-11T03:24:59.681Z,2.89
2023-04-11T03:27:26.804Z,2.79
2023-04-11T03:29:53.924Z,2.89
2023-04-11T03:32:21.119Z,2.77
2023-04-11T03:34:48.240Z,2.98
2023-04-11T03:37:15.321Z,2.99
2023-04-11T03:39:42.545Z,2.76
2023-04-11T03:42:11.161Z,2.94
2023-04-11T03:44:38.311Z,2.88
2023-04-11T03:47:05.630Z,2.93
2023-04-11T03:49:32.783Z,2.89
2023-04-11T03:51:59.890Z,2.76
2023-04-11T03:54:27.001Z,2.88
2023-04-11T03:56:54.320Z,3.00
2023-04-11T03:59:22.959Z,2.95
2023-04-11T04:01:50.269Z,2.93
2023-04-11T04:04:17.575Z,2.95
2023-04-11T04:06:44.623Z,2.61
2023-04-11T04:09:11.776Z,2.58
2023-04-11T04:11:38.917Z,2.71
2023-04-11T04:14:05.981Z,2.86
2023-04-11T04:16:34.534Z,2.74
2023-04-11T04:19:01.639Z,2.66
2023-04-11T04:21:28.678Z,2.83
2023-04-11T04:23:55.966Z,2.83
2023-04-11T04:26:23.217Z,2.88
2023-04-11T04:28:50.477Z,2.66
2023-04-11T04:31:17.580Z,2.48
2023-04-11T04:33:46.580Z,2.76
2023-04-11T04:36:13.778Z,2.64
2023-04-11T04:38:40.903Z,2.78
2023-04-11T04:41:08.319Z,2.71
2023-04-11T04:43:35.395Z,2.61
2023-04-11T04:46:02.635Z,2.97
2023-04-11T04:48:29.817Z,2.88
2023-04-11T04:50:58.457Z,2.76
2023-04-11T04:53:25.521Z,2.85
2023-04-11T04:55:52.677Z,2.83
2023-04-11T04:58:19.810Z,3.00
2023-04-11T05:00:46.976Z,2.92
2023-04-11T05:03:14.241Z,2.88
2023-04-11T05:05:41.577Z,3.02
2023-04-11T05:08:10.057Z,2.91
2023-04-11T05:10:37.296Z,3.13
2023-04-11T05:13:04.338Z,3.09
2023-04-11T05:15:31.442Z,3.05
2023-04-11T05:17:58.719Z,3.14
2023-04-11T05:20:25.816Z,2.81
2023-04-11T05:22:53.056Z,2.78
2023-04-11T05:25:21.702Z,2.78
2023-04-11T05:27:48.876Z,2.73
2023-04-11T05:30:16.058Z,2.73
2023-04-11T05:32:43.231Z,3.06
2023-04-11T05:35:10.565Z,2.84
2023-04-11T05:37:37.919Z,3.03
2023-04-11T05:40:06.543Z,2.83
2023-04-11T05:42:35.130Z,3.04
2023-04-11T05:45:02.353Z,2.89
2023-04-11T05:47:29.734Z,3.04
2023-04-11T05:49:56.821Z,2.84
2023-04-11T05:52:23.976Z,2.30
2023-04-11T05:54:51.108Z,2.03
2023-04-11T05:57:18.208Z,2.17
2023-04-11T05:59:46.804Z,2.05
2023-04-11T06:02:14.029Z,1.85
2023-04-11T06:04:41.511Z,1.78
2023-04-11T06:07:09.286Z,1.73
2023-04-11T06:09:36.550Z,1.79
2023-04-11T06:12:04.157Z,1.67
2023-04-11T06:14:31.288Z,1.42
2023-04-11T06:16:59.878Z,1.22
2023-04-11T06:19:27.394Z,1.24
2023-04-11T06:21:54.557Z,1.26
2023-04-11T06:24:35.639Z,1.26
2023-04-11T06:27:02.837Z,1.09
2023-04-11T06:29:29.979Z,0.75
2023-04-11T06:31:59.563Z,0.91
2023-04-11T06:34:26.836Z,0.83
2023-04-11T06:36:54.062Z,0.69
2023-04-11T06:39:21.358Z,0.90
2023-04-11T06:41:48.946Z,0.91
2023-04-11T06:44:16.163Z,0.96
2023-04-11T06:46:43.447Z,1.13
2023-04-11T06:49:12.086Z,1.22
2023-04-11T06:51:39.257Z,0.92
2023-04-11T06:54:06.624Z,1.03
2023-04-11T06:56:33.764Z,1.10
2023-04-11T06:59:00.906Z,1.15
2023-04-11T07:01:28.049Z,1.28
2023-04-11T07:03:55.811Z,1.28
2023-04-11T07:06:24.703Z,1.30
2023-04-11T07:08:52.248Z,1.52
2023-04-11T07:11:20.176Z,1.51
2023-04-11T07:13:47.393Z,1.73
2023-04-11T07:16:14.510Z,1.67
2023-04-11T07:18:41.649Z,1.79
2023-04-11T07:21:11.862Z,1.82
2023-04-11T07:23:41.282Z,1.83
2023-04-11T07:26:09.400Z,1.99
2023-04-11T07:28:38.818Z,2.08
2023-04-11T07:31:06.647Z,1.83
2023-04-11T07:33:33.863Z,2.23
2023-04-11T07:36:01.218Z,1.85
2023-04-11T07:38:28.590Z,2.08
2023-04-11T07:40:57.954Z,1.89
2023-04-11T07:43:25.714Z,2.44
2023-04-11T07:45:53.374Z,2.02
2023-04-11T07:48:21.880Z,1.98
2023-04-11T07:50:49.008Z,2.03
2023-04-11T07:53:16.138Z,2.24
2023-04-11T07:55:43.518Z,1.98
2023-04-11T07:58:12.234Z,1.93
2023-04-11T08:00:39.437Z,1.85
2023-04-11T08:03:10.379Z,1.82
2023-04-11T08:05:37.872Z,1.68
2023-04-11T08:08:06.191Z,1.45
2023-04-11T08:10:33.938Z,1.43
2023-04-11T08:13:01.788Z,1.61
2023-04-11T08:15:30.398Z,1.47
2023-04-11T08:17:57.642Z,1.45
2023-04-11T08:20:25.212Z,1.57
2023-04-11T08:22:52.302Z,1.43
2023-04-11T08:25:19.739Z,1.43
2023-04-11T08:27:46.861Z,1.67
2023-04-11T08:30:15.426Z,1.55
2023-04-11T08:32:44.120Z,1.53
2023-04-11T08:35:11.362Z,1.64
2023-04-11T08:37:38.539Z,1.54
2023-04-11T08:40:07.155Z,1.59
2023-04-11T08:42:34.951Z,1.35
2023-04-11T08:45:04.492Z,1.42
2023-04-11T08:47:31.812Z,1.61
2023-04-11T08:50:00.404Z,1.30
2023-04-11T08:52:30.543Z,1.24
2023-04-11T08:54:57.766Z,1.45
2023-04-11T08:57:26.787Z,1.41
2023-04-11T08:59:56.202Z,1.14
2023-04-11T09:02:23.739Z,1.44
2023-04-11T09:04:51.444Z,1.28
2023-04-11T09:07:20.184Z,1.19
2023-04-11T09:09:47.547Z,1.20
2023-04-11T09:12:14.770Z,1.07
2023-04-11T09:14:41.982Z,1.30
2023-04-11T09:17:09.818Z,1.12
2023-04-11T09:19:36.938Z,1.15
2023-04-11T09:22:04.789Z,1.13
2023-04-11T09:24:35.745Z,1.05
2023-04-11T09:27:11.814Z,1.02
2023-04-11T09:29:41.404Z,1.24
2023-04-11T09:32:26.613Z,1.22
2023-04-11T09:35:08.243Z,1.15
2023-04-11T09:37:43.223Z,1.14
2023-04-11T09:40:12.804Z,1.07
2023-04-11T09:42:40.245Z,1.06
2023-04-11T09:45:17.105Z,1.24
2023-04-11T09:47:44.989Z,1.13
2023-04-11T09:50:12.583Z,1.17
2023-04-11T09:52:41.622Z,1.22
2023-04-11T09:55:09.806Z,1.20
2023-04-11T09:57:40.665Z,1.20
2023-04-11T10:00:09.596Z,1.15
2023-04-11T10:02:36.938Z,1.40
2023-04-11T10:05:05.339Z,1.16
2023-04-11T10:07:35.502Z,1.00
2023-04-11T10:10:03.378Z,0.99
2023-04-11T10:12:31.688Z,0.95
2023-04-11T10:15:06.803Z,1.34
2023-04-11T10:17:34.077Z,1.04
2023-04-11T10:20:02.036Z,1.52
2023-04-11T10:23:00.252Z,1.30
2023-04-11T10:25:28.068Z,1.55
2023-04-11T10:27:57.093Z,1.43
2023-04-11T10:31:08.667Z,1.36
2023-04-11T10:33:37.778Z,1.29
2023-04-11T10:36:07.597Z,1.33
2023-04-11T10:38:50.355Z,1.25
2023-04-11T10:41:20.163Z,1.17
2023-04-11T10:43:47.581Z,1.37
2023-04-11T10:46:19.061Z,1.21
2023-04-11T10:49:01.763Z,1.35
2023-04-11T10:51:31.026Z,1.25
2023-04-11T10:53:59.994Z,1.48
2023-04-11T10:56:55.220Z,1.19
2023-04-11T10:59:55.656Z,1.25
2023-04-11T11:02:36.929Z,1.33
2023-04-11T11:05:18.262Z,1.43
2023-04-11T11:07:50.839Z,1.38
2023-04-11T11:10:39.543Z,1.55
2023-04-11T11:13:06.940Z,1.54
2023-04-11T11:15:35.574Z,1.46
2023-04-11T11:18:04.232Z,1.39
2023-04-11T11:20:33.081Z,1.43
2023-04-11T11:23:02.489Z,1.48
2023-04-11T11:25:30.498Z,1.15
2023-04-11T11:28:02.459Z,1.37
2023-04-11T11:30:30.403Z,1.29
2023-04-11T11:32:57.724Z,1.45
2023-04-11T11:35:25.992Z,1.24
2023-04-11T11:37:55.037Z,1.32
2023-04-11T11:40:22.808Z,1.27
2023-04-11T11:42:51.738Z,1.33
2023-04-11T11:45:21.700Z,1.19
2023-04-11T11:47:50.549Z,1.35
2023-04-11T11:50:28.827Z,1.29
2023-04-11T11:53:11.359Z,1.37
2023-04-11T11:55:38.940Z,1.34
2023-04-11T11:58:06.244Z,1.46
2023-04-11T12:00:37.803Z,1.49
2023-04-11T12:03:06.504Z,1.18
2023-04-11T12:05:35.657Z,1.52
2023-04-11T12:08:05.778Z,1.25
2023-04-11T12:10:41.434Z,1.24
2023-04-11T12:13:13.901Z,1.24
2023-04-11T12:15:43.922Z,1.26
2023-04-11T12:18:11.133Z,1.39
2023-04-11T12:20:38.289Z,1.32
2023-04-11T12:23:07.179Z,1.23
2023-04-11T12:25:34.409Z,1.34
2023-04-11T12:28:01.519Z,1.22
2023-04-11T12:30:30.120Z,1.26
2023-04-11T12:32:57.572Z,1.80
2023-04-11T12:35:24.946Z,1.23
2023-04-11T12:37:52.140Z,1.37
2023-04-11T12:40:21.112Z,1.46
2023-04-11T12:44:22.954Z,1.41
2023-04-11T12:45:35.901Z,1.34
2023-04-11T12:48:03.179Z,1.26
2023-04-11T12:50:30.426Z,1.10
2023-04-11T12:52:57.530Z,1.12
2023-04-11T12:55:26.474Z,1.20
2023-04-11T12:57:53.542Z,1.42
2023-04-11T13:00:21.073Z,1.45
2023-04-11T13:02:48.701Z,1.35
2023-04-11T13:05:17.139Z,1.46
2023-04-11T13:07:45.774Z,1.59
2023-04-11T13:10:14.312Z,1.09
2023-04-11T13:12:44.288Z,1.07
2023-04-11T13:15:13.676Z,1.31
2023-04-11T13:17:40.881Z,1.33
2023-04-11T13:20:10.478Z,1.32
2023-04-11T13:22:38.467Z,1.34
2023-04-11T13:25:06.856Z,1.30
2023-04-11T13:27:34.852Z,1.33
2023-04-11T13:30:03.904Z,1.18
2023-04-11T13:32:31.513Z,1.13
2023-04-11T13:34:59.406Z,1.05
2023-04-11T13:37:26.636Z,1.19
2023-04-11T13:39:53.866Z,1.30
2023-04-11T13:42:21.325Z,1.12
2023-04-11T13:44:48.571Z,1.09
2023-04-11T13:47:17.146Z,1.31
2023-04-11T13:49:44.224Z,1.27
2023-04-11T13:52:11.424Z,1.15
2023-04-11T13:54:38.606Z,1.22
2023-04-11T13:57:05.765Z,1.19
2023-04-11T13:59:32.885Z,1.09
2023-04-11T14:02:00.177Z,1.09
2023-04-11T14:04:28.884Z,1.31
2023-04-11T14:06:56.056Z,1.24
2023-04-11T14:09:23.316Z,1.11
2023-04-11T14:11:50.375Z,1.00
2023-04-11T14:14:17.445Z,1.08
2023-04-11T14:16:44.704Z,1.32
2023-04-11T14:19:11.803Z,1.06
2023-04-11T14:21:40.550Z,1.11
2023-04-11T14:24:08.889Z,1.00
2023-04-11T14:26:35.966Z,1.07
2023-04-11T14:29:03.109Z,1.08
2023-04-11T14:31:30.549Z,1.21
2023-04-11T14:33:57.922Z,1.12
2023-04-11T14:36:25.233Z,1.03
2023-04-11T14:38:53.832Z,0.76
2023-04-11T14:41:21.123Z,0.69
2023-04-11T14:43:48.321Z,0.81
2023-04-11T14:46:15.578Z,0.92
2023-04-11T14:48:43.061Z,0.82
2023-04-11T14:51:10.202Z,0.76
2023-04-11T14:53:37.451Z,0.57
2023-04-11T14:56:07.431Z,0.67
2023-04-11T14:58:34.638Z,0.87
2023-04-11T15:01:02.050Z,0.63
2023-04-11T15:03:29.571Z,0.52
2023-04-11T15:05:57.071Z,0.67
2023-04-11T15:08:24.362Z,0.74
2023-04-11T15:10:51.419Z,0.48
2023-04-11T15:13:20.338Z,0.68
2023-04-11T15:15:47.563Z,0.57
2023-04-11T15:18:27.080Z,0.60
2023-04-11T15:20:57.947Z,0.67
2023-04-11T15:23:25.917Z,0.58
2023-04-11T15:25:54.279Z,0.49
2023-04-11T15:28:25.497Z,0.47
2023-04-11T15:30:54.437Z,0.47
2023-04-11T15:33:22.629Z,0.53
2023-04-11T15:35:50.162Z,0.47
2023-04-11T15:38:17.657Z,0.67
2023-04-11T15:40:44.999Z,0.85
2023-04-11T15:43:12.460Z,0.72
2023-04-11T15:45:41.138Z,0.87
2023-04-11T15:48:09.777Z,0.62
2023-04-11T15:50:36.977Z,0.60
2023-04-11T15:53:04.106Z,0.81
2023-04-11T15:55:31.201Z,0.69
2023-04-11T15:57:58.320Z,0.65
2023-04-11T16:00:25.979Z,0.68
2023-04-11T16:02:54.895Z,0.66
2023-04-11T16:05:22.320Z,0.68
2023-04-11T16:07:49.801Z,0.68
2023-04-11T16:10:16.980Z,0.69
2023-04-11T16:12:44.283Z,0.58
2023-04-11T16:15:11.620Z,0.52
2023-04-11T16:17:38.753Z,0.59
2023-04-11T16:20:11.198Z,0.53
2023-04-11T16:22:39.200Z,0.61
2023-04-11T16:25:07.609Z,0.73
2023-04-11T16:27:34.749Z,0.77
2023-04-11T16:30:01.912Z,0.89
2023-04-11T16:32:29.266Z,0.65
2023-04-11T16:34:56.439Z,0.72
2023-04-11T16:37:25.083Z,0.67
2023-04-11T16:39:52.450Z,0.64
2023-04-11T16:42:19.686Z,0.54
2023-04-11T16:44:46.864Z,0.66
2023-04-11T16:47:14.362Z,0.70
2023-04-11T16:49:41.504Z,0.67
2023-04-11T16:52:08.681Z,0.78
2023-04-11T16:54:37.241Z,0.83
2023-04-11T16:57:04.441Z,1.17
2023-04-11T16:59:31.601Z,1.02
2023-04-11T17:01:59.036Z,1.02
2023-04-11T17:04:26.451Z,1.52
2023-04-11T17:06:53.841Z,0.82
2023-04-11T17:09:21.906Z,0.81
2023-04-11T17:11:50.469Z,0.92
2023-04-11T17:14:17.632Z,0.78
2023-04-11T17:16:44.741Z,0.92
2023-04-11T17:19:11.881Z,0.80
2023-04-11T17:21:39.083Z,0.91
2023-04-11T17:24:06.521Z,0.93
2023-04-11T17:26:33.581Z,0.88
2023-04-11T17:29:02.237Z,0.92
2023-04-11T17:31:29.589Z,1.45
2023-04-11T17:33:57.010Z,1.34
2023-04-11T17:36:24.333Z,1.38
2023-04-11T17:38:51.636Z,1.23
2023-04-11T17:41:18.707Z,1.36
2023-04-11T17:43:45.883Z,1.78
2023-04-11T17:46:14.525Z,1.49
2023-04-11T17:48:41.779Z,1.49
2023-04-11T17:51:08.959Z,1.64
2023-04-11T17:53:36.219Z,1.28
2023-04-11T17:56:03.857Z,1.29
2023-04-11T17:58:43.039Z,1.34
2023-04-11T18:01:10.349Z,1.38
2023-04-11T18:03:39.079Z,1.11
2023-04-11T18:06:07.378Z,1.46
2023-04-11T18:08:49.984Z,1.30
2023-04-11T18:11:18.493Z,1.02
2023-04-11T18:13:48.306Z,1.28
2023-04-11T18:16:17.150Z,1.09
2023-04-11T18:18:46.228Z,1.04
2023-04-11T18:21:13.399Z,1.33
2023-04-11T18:23:40.540Z,1.38
2023-04-11T18:26:07.704Z,1.04
2023-04-11T18:28:34.940Z,1.34
2023-04-11T18:31:02.201Z,1.41
2023-04-11T18:33:29.556Z,1.83
2023-04-11T18:35:58.358Z,1.40
2023-04-11T18:38:25.543Z,1.60
2023-04-11T18:40:56.257Z,1.63
2023-04-11T18:43:24.840Z,2.35
2023-04-11T18:45:52.221Z,2.68
2023-04-11T18:48:19.365Z,2.46
2023-04-11T18:50:46.623Z,1.69
2023-04-11T18:53:15.218Z,1.62
2023-04-11T18:55:42.325Z,1.25
2023-04-11T18:58:11.280Z,1.52
2023-04-11T19:00:40.803Z,0.72
2023-04-11T19:03:08.035Z,0.76
2023-04-11T19:05:36.220Z,2.23
2023-04-11T19:08:03.610Z,1.66
2023-04-11T19:10:32.418Z,1.66
2023-04-11T19:12:59.540Z,1.33
2023-04-11T19:15:26.797Z,1.30
2023-04-11T19:17:55.834Z,1.55
2023-04-11T19:20:25.176Z,1.17
2023-04-11T19:22:52.960Z,1.22
2023-04-11T19:25:20.331Z,1.37
2023-04-11T19:27:48.974Z,1.19
2023-04-11T19:30:16.262Z,1.37
2023-04-11T19:32:43.789Z,1.21
2023-04-11T19:35:12.068Z,1.27
2023-04-11T19:37:39.375Z,1.08
2023-04-11T19:40:09.958Z,1.41
2023-04-11T19:42:39.285Z,1.26
2023-04-11T19:45:09.753Z,1.38
2023-04-11T19:47:36.896Z,0.98
2023-04-11T19:50:04.760Z,1.00
2023-04-11T19:52:32.082Z,0.88
2023-04-11T19:54:59.141Z,0.87
2023-04-11T19:57:27.821Z,0.93
2023-04-11T19:59:55.063Z,0.96
2023-04-11T20:02:23.821Z,1.11
2023-04-11T20:04:51.204Z,1.18
2023-04-11T20:07:18.784Z,0.94
2023-04-11T20:09:45.822Z,1.06
2023-04-11T20:12:12.964Z,1.06
2023-04-11T20:14:40.266Z,0.84
2023-04-11T20:17:07.547Z,1.23
2023-04-11T20:19:36.440Z,1.47
2023-04-11T20:22:03.662Z,1.46
2023-04-11T20:24:30.764Z,1.17
2023-04-11T20:26:57.966Z,1.31
2023-04-11T20:29:25.361Z,1.43
2023-04-11T20:31:52.521Z,1.94
2023-04-11T20:34:19.700Z,2.05
2023-04-11T20:36:48.401Z,1.75
2023-04-11T20:39:15.586Z,1.59
2023-04-11T20:41:42.664Z,1.89
2023-04-11T20:44:09.840Z,1.27
2023-04-11T20:46:37.144Z,1.29
2023-04-11T20:49:04.678Z,1.24
2023-04-11T20:51:31.880Z,1.33
2023-04-11T20:54:00.619Z,1.56
2023-04-11T20:56:27.816Z,1.45
2023-04-11T20:58:54.916Z,1.66
2023-04-11T21:01:22.062Z,1.31
2023-04-11T21:03:49.499Z,1.13
2023-04-11T21:06:16.763Z,1.02
2023-04-11T21:08:43.919Z,1.19
2023-04-11T21:11:12.557Z,1.21
2023-04-11T21:13:39.717Z,1.16
2023-04-11T21:16:09.122Z,1.26
2023-04-11T21:18:36.376Z,1.38
2023-04-11T21:21:06.235Z,1.22
2023-04-11T21:23:33.494Z,1.17
2023-04-11T21:26:00.713Z,1.30
2023-04-11T21:28:29.260Z,1.25
2023-04-11T21:30:56.451Z,1.32
2023-04-11T21:33:23.682Z,1.50
2023-04-11T21:35:53.537Z,1.28
2023-04-11T21:38:20.764Z,1.35
2023-04-11T21:40:47.839Z,1.41
2023-04-11T21:43:14.938Z,1.40
2023-04-11T21:45:43.456Z,1.41
2023-04-11T21:48:10.696Z,1.47
2023-04-11T21:50:37.777Z,1.63
2023-04-11T21:53:04.818Z,2.20
2023-04-11T21:55:31.883Z,1.25
2023-04-11T21:57:58.935Z,1.19
2023-04-11T22:00:26.229Z,1.24
2023-04-11T22:02:55.056Z,1.16
2023-04-11T22:05:22.639Z,1.45
2023-04-11T22:07:50.658Z,2.73
2023-04-11T22:10:18.176Z,2.56
2023-04-11T22:12:45.363Z,1.99
2023-04-11T22:15:12.696Z,1.88
2023-04-11T22:17:40.438Z,1.69
2023-04-11T22:20:11.044Z,2.29
2023-04-11T22:22:38.158Z,3.27
2023-04-11T22:25:06.217Z,1.78
2023-04-11T22:27:33.388Z,1.71
2023-04-11T22:30:00.554Z,1.42
2023-04-11T22:32:27.747Z,1.83
2023-04-11T22:34:54.874Z,1.78
2023-04-11T22:37:23.548Z,1.64
2023-04-11T22:39:51.555Z,1.51
2023-04-11T22:42:18.940Z,1.45
2023-04-11T22:44:46.077Z,1.28
2023-04-11T22:47:13.367Z,1.84
2023-04-11T22:49:40.817Z,1.12
2023-04-11T22:52:09.363Z,1.59
2023-04-11T22:54:37.923Z,1.46
2023-04-11T22:57:05.053Z,1.34
2023-04-11T22:59:32.282Z,1.40
2023-04-11T23:01:59.424Z,1.30
2023-04-11T23:04:26.689Z,1.33
2023-04-11T23:06:53.863Z,1.50
2023-04-11T23:09:21.679Z,1.39
2023-04-11T23:11:50.384Z,1.51
2023-04-11T23:14:17.468Z,1.29
2023-04-11T23:16:45.402Z,1.40
2023-04-11T23:19:12.638Z,1.55
2023-04-11T23:21:39.745Z,1.42
2023-04-11T23:24:07.855Z,1.22
2023-04-11T23:26:35.239Z,1.47
2023-04-11T23:29:03.796Z,1.54
2023-04-11T23:31:31.178Z,1.55
2023-04-11T23:33:58.954Z,1.36
2023-04-11T23:36:26.994Z,1.36
2023-04-11T23:38:54.161Z,1.36
2023-04-11T23:41:21.380Z,1.35
2023-04-11T23:43:48.436Z,1.27
2023-04-11T23:46:17.246Z,1.30
2023-04-11T23:48:44.528Z,1.23
2023-04-11T23:51:11.631Z,1.38
2023-04-11T23:53:38.775Z,1.41
2023-04-11T23:56:07.396Z,1.36
2023-04-11T23:58:35.416Z,1.50
